sensor_id;sensor_type;location;lat;lon;timestamp;P1;durP1;ratioP1;P2;durP2;ratioP2
69280;SDS011;56392;51.082;17.080;2023-03-03T00:00:49;103.97;;;30.55;;
69280;SDS011;56392;51.082;17.080;2023-03-03T00:06:13;104.77;;;31.60;;
69280;SDS011;56392;51.082;17.080;2023-03-03T00:11:37;103.15;;;31.35;;
69280;SDS011;56392;51.082;17.080;2023-03-03T00:17:01;106.82;;;29.95;;
69280;SDS011;56392;51.082;17.080;2023-03-03T00:22:39;101.33;;;28.93;;
69280;SDS011;56392;51.082;17.080;2023-03-03T00:28:06;96.88;;;28.23;;
69280;SDS011;56392;51.082;17.080;2023-03-03T00:33:40;85.80;;;26.65;;
69280;SDS011;56392;51.082;17.080;2023-03-03T00:39:15;82.30;;;25.53;;
69280;SDS011;56392;51.082;17.080;2023-03-03T00:44:45;85.30;;;26.90;;
69280;SDS011;56392;51.082;17.080;2023-03-03T00:55:55;81.18;;;24.92;;
69280;SDS011;56392;51.082;17.080;2023-03-03T01:01:20;69.97;;;22.77;;
69280;SDS011;56392;51.082;17.080;2023-03-03T01:06:43;60.78;;;22.17;;
69280;SDS011;56392;51.082;17.080;2023-03-03T01:12:08;61.90;;;20.17;;
69280;SDS011;56392;51.082;17.080;2023-03-03T01:17:33;64.30;;;21.17;;
69280;SDS011;56392;51.082;17.080;2023-03-03T01:22:56;59.25;;;19.33;;
69280;SDS011;56392;51.082;17.080;2023-03-03T01:28:19;62.42;;;20.45;;
69280;SDS011;56392;51.082;17.080;2023-03-03T01:33:44;52.43;;;19.57;;
69280;SDS011;56392;51.082;17.080;2023-03-03T01:39:07;58.77;;;20.67;;
69280;SDS011;56392;51.082;17.080;2023-03-03T01:44:32;55.75;;;19.73;;
69280;SDS011;56392;51.082;17.080;2023-03-03T01:49:57;54.80;;;19.80;;
69280;SDS011;56392;51.082;17.080;2023-03-03T01:55:28;61.17;;;21.03;;
69280;SDS011;56392;51.082;17.080;2023-03-03T02:00:58;53.78;;;19.38;;
69280;SDS011;56392;51.082;17.080;2023-03-03T02:06:26;61.42;;;21.17;;
69280;SDS011;56392;51.082;17.080;2023-03-03T02:11:51;55.97;;;19.90;;
69280;SDS011;56392;51.082;17.080;2023-03-03T02:17:18;57.58;;;20.38;;
69280;SDS011;56392;51.082;17.080;2023-03-03T02:22:45;55.20;;;20.13;;
69280;SDS011;56392;51.082;17.080;2023-03-03T02:28:13;64.30;;;20.37;;
69280;SDS011;56392;51.082;17.080;2023-03-03T02:33:36;56.00;;;20.37;;
69280;SDS011;56392;51.082;17.080;2023-03-03T02:39:01;59.40;;;20.30;;
69280;SDS011;56392;51.082;17.080;2023-03-03T02:44:29;60.25;;;20.25;;
69280;SDS011;56392;51.082;17.080;2023-03-03T02:49:54;57.87;;;19.97;;
69280;SDS011;56392;51.082;17.080;2023-03-03T02:55:17;51.38;;;19.80;;
69280;SDS011;56392;51.082;17.080;2023-03-03T03:00:42;49.13;;;18.33;;
69280;SDS011;56392;51.082;17.080;2023-03-03T03:06:07;53.80;;;19.53;;
69280;SDS011;56392;51.082;17.080;2023-03-03T03:11:31;53.25;;;21.15;;
69280;SDS011;56392;51.082;17.080;2023-03-03T03:16:56;56.38;;;21.02;;
69280;SDS011;56392;51.082;17.080;2023-03-03T03:22:19;51.97;;;19.40;;
69280;SDS011;56392;51.082;17.080;2023-03-03T03:27:43;54.65;;;19.15;;
69280;SDS011;56392;51.082;17.080;2023-03-03T03:33:09;53.58;;;18.77;;
69280;SDS011;56392;51.082;17.080;2023-03-03T03:38:32;50.73;;;18.30;;
69280;SDS011;56392;51.082;17.080;2023-03-03T03:43:57;55.50;;;19.13;;
69280;SDS011;56392;51.082;17.080;2023-03-03T03:49:21;50.47;;;19.02;;
69280;SDS011;56392;51.082;17.080;2023-03-03T03:54:44;49.97;;;18.10;;
69280;SDS011;56392;51.082;17.080;2023-03-03T04:00:08;50.33;;;17.67;;
69280;SDS011;56392;51.082;17.080;2023-03-03T04:05:33;51.13;;;18.83;;
69280;SDS011;56392;51.082;17.080;2023-03-03T04:10:56;48.50;;;18.17;;
69280;SDS011;56392;51.082;17.080;2023-03-03T04:16:20;47.63;;;17.70;;
69280;SDS011;56392;51.082;17.080;2023-03-03T04:21:44;47.55;;;17.00;;
69280;SDS011;56392;51.082;17.080;2023-03-03T04:27:07;52.47;;;18.17;;
69280;SDS011;56392;51.082;17.080;2023-03-03T04:32:32;51.63;;;18.80;;
69280;SDS011;56392;51.082;17.080;2023-03-03T04:37:56;53.57;;;18.30;;
69280;SDS011;56392;51.082;17.080;2023-03-03T04:43:20;54.97;;;19.88;;
69280;SDS011;56392;51.082;17.080;2023-03-03T04:48:43;48.90;;;17.63;;
69280;SDS011;56392;51.082;17.080;2023-03-03T04:54:07;48.60;;;16.80;;
69280;SDS011;56392;51.082;17.080;2023-03-03T04:59:30;40.67;;;15.07;;
69280;SDS011;56392;51.082;17.080;2023-03-03T05:04:53;33.35;;;12.60;;
69280;SDS011;56392;51.082;17.080;2023-03-03T05:10:18;32.47;;;11.97;;
69280;SDS011;56392;51.082;17.080;2023-03-03T05:15:41;31.45;;;11.30;;
69280;SDS011;56392;51.082;17.080;2023-03-03T05:21:05;29.42;;;10.50;;
69280;SDS011;56392;51.082;17.080;2023-03-03T05:26:29;31.17;;;11.57;;
69280;SDS011;56392;51.082;17.080;2023-03-03T05:31:52;32.60;;;12.30;;
69280;SDS011;56392;51.082;17.080;2023-03-03T05:37:16;34.25;;;11.70;;
69280;SDS011;56392;51.082;17.080;2023-03-03T05:42:40;32.67;;;11.63;;
69280;SDS011;56392;51.082;17.080;2023-03-03T05:48:03;27.77;;;9.97;;
69280;SDS011;56392;51.082;17.080;2023-03-03T05:53:27;26.42;;;9.55;;
69280;SDS011;56392;51.082;17.080;2023-03-03T05:58:52;25.75;;;10.00;;
69280;SDS011;56392;51.082;17.080;2023-03-03T06:04:16;28.00;;;10.20;;
69280;SDS011;56392;51.082;17.080;2023-03-03T06:09:41;26.20;;;8.98;;
69280;SDS011;56392;51.082;17.080;2023-03-03T06:15:06;22.48;;;7.80;;
69280;SDS011;56392;51.082;17.080;2023-03-03T06:20:30;24.77;;;8.70;;
69280;SDS011;56392;51.082;17.080;2023-03-03T06:25:54;20.48;;;7.60;;
69280;SDS011;56392;51.082;17.080;2023-03-03T06:31:18;20.42;;;7.05;;
69280;SDS011;56392;51.082;17.080;2023-03-03T06:36:41;23.07;;;7.87;;
69280;SDS011;56392;51.082;17.080;2023-03-03T06:42:05;21.80;;;8.17;;
69280;SDS011;56392;51.082;17.080;2023-03-03T06:47:31;25.42;;;9.20;;
69280;SDS011;56392;51.082;17.080;2023-03-03T06:52:58;22.37;;;8.53;;
69280;SDS011;56392;51.082;17.080;2023-03-03T06:58:26;22.17;;;7.07;;
69280;SDS011;56392;51.082;17.080;2023-03-03T07:03:51;21.08;;;7.10;;
69280;SDS011;56392;51.082;17.080;2023-03-03T07:09:17;21.38;;;7.30;;
69280;SDS011;56392;51.082;17.080;2023-03-03T07:14:43;19.60;;;6.60;;
69280;SDS011;56392;51.082;17.080;2023-03-03T07:20:11;24.17;;;7.60;;
69280;SDS011;56392;51.082;17.080;2023-03-03T07:25:39;23.45;;;7.65;;
69280;SDS011;56392;51.082;17.080;2023-03-03T07:31:03;23.87;;;7.50;;
69280;SDS011;56392;51.082;17.080;2023-03-03T07:36:49;24.35;;;8.50;;
69280;SDS011;56392;51.082;17.080;2023-03-03T07:42:19;30.48;;;8.98;;
69280;SDS011;56392;51.082;17.080;2023-03-03T07:47:44;29.67;;;9.17;;
69280;SDS011;56392;51.082;17.080;2023-03-03T07:53:11;27.83;;;8.57;;
69280;SDS011;56392;51.082;17.080;2023-03-03T07:58:37;24.05;;;8.68;;
69280;SDS011;56392;51.082;17.080;2023-03-03T08:04:01;30.33;;;10.63;;
69280;SDS011;56392;51.082;17.080;2023-03-03T08:09:37;29.23;;;10.63;;
69280;SDS011;56392;51.082;17.080;2023-03-03T08:15:17;27.90;;;9.67;;
69280;SDS011;56392;51.082;17.080;2023-03-03T08:20:45;25.93;;;9.43;;
69280;SDS011;56392;51.082;17.080;2023-03-03T08:26:11;28.23;;;9.52;;
69280;SDS011;56392;51.082;17.080;2023-03-03T08:31:35;26.88;;;9.35;;
69280;SDS011;56392;51.082;17.080;2023-03-03T08:36:58;29.37;;;10.13;;
69280;SDS011;56392;51.082;17.080;2023-03-03T08:42:22;24.80;;;9.52;;
69280;SDS011;56392;51.082;17.080;2023-03-03T08:47:45;24.63;;;9.77;;
69280;SDS011;56392;51.082;17.080;2023-03-03T08:53:09;22.63;;;8.70;;
69280;SDS011;56392;51.082;17.080;2023-03-03T08:58:34;25.20;;;8.48;;
69280;SDS011;56392;51.082;17.080;2023-03-03T09:04:02;29.55;;;11.80;;
69280;SDS011;56392;51.082;17.080;2023-03-03T09:09:25;29.13;;;12.70;;
69280;SDS011;56392;51.082;17.080;2023-03-03T09:14:50;28.23;;;10.45;;
69280;SDS011;56392;51.082;17.080;2023-03-03T09:20:20;25.98;;;9.45;;
69280;SDS011;56392;51.082;17.080;2023-03-03T09:25:54;25.00;;;9.47;;
69280;SDS011;56392;51.082;17.080;2023-03-03T09:31:21;26.08;;;10.15;;
69280;SDS011;56392;51.082;17.080;2023-03-03T09:36:47;27.58;;;10.95;;
69280;SDS011;56392;51.082;17.080;2023-03-03T09:48:06;30.90;;;11.18;;
69280;SDS011;56392;51.082;17.080;2023-03-03T09:53:45;30.55;;;12.23;;
69280;SDS011;56392;51.082;17.080;2023-03-03T09:59:27;32.37;;;12.57;;
69280;SDS011;56392;51.082;17.080;2023-03-03T10:05:09;29.10;;;11.40;;
69280;SDS011;56392;51.082;17.080;2023-03-03T10:10:47;30.15;;;11.57;;
69280;SDS011;56392;51.082;17.080;2023-03-03T10:16:26;29.48;;;11.07;;
69280;SDS011;56392;51.082;17.080;2023-03-03T10:22:14;26.57;;;10.67;;
69280;SDS011;56392;51.082;17.080;2023-03-03T10:27:45;29.55;;;11.07;;
69280;SDS011;56392;51.082;17.080;2023-03-03T10:33:21;27.80;;;10.40;;
69280;SDS011;56392;51.082;17.080;2023-03-03T10:38:56;32.03;;;10.87;;
69280;SDS011;56392;51.082;17.080;2023-03-03T10:44:34;28.40;;;10.63;;
69280;SDS011;56392;51.082;17.080;2023-03-03T10:50:11;28.55;;;10.20;;
69280;SDS011;56392;51.082;17.080;2023-03-03T10:55:44;30.03;;;10.93;;
69280;SDS011;56392;51.082;17.080;2023-03-03T11:01:16;28.85;;;10.70;;
69280;SDS011;56392;51.082;17.080;2023-03-03T11:06:47;30.90;;;10.73;;
69280;SDS011;56392;51.082;17.080;2023-03-03T11:12:22;28.20;;;10.67;;
69280;SDS011;56392;51.082;17.080;2023-03-03T11:17:58;24.93;;;9.80;;
69280;SDS011;56392;51.082;17.080;2023-03-03T11:23:40;25.98;;;9.05;;
69280;SDS011;56392;51.082;17.080;2023-03-03T11:29:25;25.42;;;9.52;;
69280;SDS011;56392;51.082;17.080;2023-03-03T11:35:07;21.33;;;7.97;;
69280;SDS011;56392;51.082;17.080;2023-03-03T11:40:44;26.45;;;10.52;;
69280;SDS011;56392;51.082;17.080;2023-03-03T11:46:12;25.73;;;10.07;;
69280;SDS011;56392;51.082;17.080;2023-03-03T11:51:50;27.93;;;9.53;;
69280;SDS011;56392;51.082;17.080;2023-03-03T11:57:20;27.48;;;9.90;;
69280;SDS011;56392;51.082;17.080;2023-03-03T12:08:48;24.57;;;8.87;;
69280;SDS011;56392;51.082;17.080;2023-03-03T12:14:29;21.50;;;8.73;;
69280;SDS011;56392;51.082;17.080;2023-03-03T12:20:06;25.15;;;8.75;;
69280;SDS011;56392;51.082;17.080;2023-03-03T12:25:36;28.83;;;10.43;;
69280;SDS011;56392;51.082;17.080;2023-03-03T12:31:10;25.43;;;9.77;;
69280;SDS011;56392;51.082;17.080;2023-03-03T12:36:49;25.83;;;10.32;;
69280;SDS011;56392;51.082;17.080;2023-03-03T12:42:22;26.48;;;10.60;;
69280;SDS011;56392;51.082;17.080;2023-03-03T12:47:53;26.73;;;10.20;;
69280;SDS011;56392;51.082;17.080;2023-03-03T12:53:27;24.63;;;9.98;;
69280;SDS011;56392;51.082;17.080;2023-03-03T12:59:01;26.13;;;9.75;;
69280;SDS011;56392;51.082;17.080;2023-03-03T13:04:30;23.57;;;9.33;;
69280;SDS011;56392;51.082;17.080;2023-03-03T13:10:04;23.17;;;9.38;;
69280;SDS011;56392;51.082;17.080;2023-03-03T13:15:36;23.45;;;9.50;;
69280;SDS011;56392;51.082;17.080;2023-03-03T13:21:04;25.30;;;9.53;;
69280;SDS011;56392;51.082;17.080;2023-03-03T13:26:34;26.83;;;10.87;;
69280;SDS011;56392;51.082;17.080;2023-03-03T13:32:02;25.17;;;10.27;;
69280;SDS011;56392;51.082;17.080;2023-03-03T13:37:34;25.75;;;9.82;;
69280;SDS011;56392;51.082;17.080;2023-03-03T13:43:04;20.17;;;8.83;;
69280;SDS011;56392;51.082;17.080;2023-03-03T13:48:47;25.17;;;9.30;;
69280;SDS011;56392;51.082;17.080;2023-03-03T13:54:31;23.88;;;9.68;;
69280;SDS011;56392;51.082;17.080;2023-03-03T14:00:15;28.40;;;10.37;;
69280;SDS011;56392;51.082;17.080;2023-03-03T14:05:44;29.95;;;11.32;;
69280;SDS011;56392;51.082;17.080;2023-03-03T14:11:10;26.45;;;10.60;;
69280;SDS011;56392;51.082;17.080;2023-03-03T14:16:48;27.50;;;11.20;;
69280;SDS011;56392;51.082;17.080;2023-03-03T14:22:17;27.87;;;10.67;;
69280;SDS011;56392;51.082;17.080;2023-03-03T14:27:53;27.50;;;11.20;;
69280;SDS011;56392;51.082;17.080;2023-03-03T14:33:28;28.40;;;10.52;;
69280;SDS011;56392;51.082;17.080;2023-03-03T14:38:52;24.37;;;10.23;;
69280;SDS011;56392;51.082;17.080;2023-03-03T14:44:26;25.70;;;10.30;;
69280;SDS011;56392;51.082;17.080;2023-03-03T14:49:52;27.83;;;10.07;;
69280;SDS011;56392;51.082;17.080;2023-03-03T15:01:10;24.40;;;9.80;;
69280;SDS011;56392;51.082;17.080;2023-03-03T15:06:39;24.65;;;9.75;;
69280;SDS011;56392;51.082;17.080;2023-03-03T15:12:16;25.57;;;9.90;;
69280;SDS011;56392;51.082;17.080;2023-03-03T15:17:42;22.97;;;9.63;;
69280;SDS011;56392;51.082;17.080;2023-03-03T15:23:29;22.85;;;8.82;;
69280;SDS011;56392;51.082;17.080;2023-03-03T15:29:03;22.80;;;8.68;;
69280;SDS011;56392;51.082;17.080;2023-03-03T15:34:36;24.73;;;9.80;;
69280;SDS011;56392;51.082;17.080;2023-03-03T15:40:08;21.55;;;9.05;;
69280;SDS011;56392;51.082;17.080;2023-03-03T15:45:43;22.90;;;9.73;;
69280;SDS011;56392;51.082;17.080;2023-03-03T15:51:12;23.37;;;9.87;;
69280;SDS011;56392;51.082;17.080;2023-03-03T15:56:47;23.80;;;8.60;;
69280;SDS011;56392;51.082;17.080;2023-03-03T16:02:14;22.10;;;9.30;;
69280;SDS011;56392;51.082;17.080;2023-03-03T16:07:41;21.63;;;9.57;;
69280;SDS011;56392;51.082;17.080;2023-03-03T16:13:20;22.93;;;10.37;;
69280;SDS011;56392;51.082;17.080;2023-03-03T16:18:52;26.30;;;10.88;;
69280;SDS011;56392;51.082;17.080;2023-03-03T16:24:37;23.58;;;11.40;;
69280;SDS011;56392;51.082;17.080;2023-03-03T16:30:11;24.40;;;10.87;;
69280;SDS011;56392;51.082;17.080;2023-03-03T16:35:47;30.38;;;11.75;;
69280;SDS011;56392;51.082;17.080;2023-03-03T16:41:22;27.08;;;11.40;;
69280;SDS011;56392;51.082;17.080;2023-03-03T16:46:52;22.50;;;10.63;;
69280;SDS011;56392;51.082;17.080;2023-03-03T16:52:23;23.13;;;10.18;;
69280;SDS011;56392;51.082;17.080;2023-03-03T16:57:56;23.40;;;10.48;;
69280;SDS011;56392;51.082;17.080;2023-03-03T17:03:33;25.47;;;10.50;;
69280;SDS011;56392;51.082;17.080;2023-03-03T17:15:00;29.52;;;12.88;;
69280;SDS011;56392;51.082;17.080;2023-03-03T17:20:38;29.63;;;12.48;;
69280;SDS011;56392;51.082;17.080;2023-03-03T17:26:22;23.90;;;10.63;;
69280;SDS011;56392;51.082;17.080;2023-03-03T17:32:08;24.10;;;10.68;;
69280;SDS011;56392;51.082;17.080;2023-03-03T17:37:45;23.27;;;9.43;;
69280;SDS011;56392;51.082;17.080;2023-03-03T17:43:16;22.07;;;8.67;;
69280;SDS011;56392;51.082;17.080;2023-03-03T17:48:57;20.67;;;8.25;;
69280;SDS011;56392;51.082;17.080;2023-03-03T17:54:32;20.50;;;8.13;;
69280;SDS011;56392;51.082;17.080;2023-03-03T18:00:14;23.33;;;8.83;;
69280;SDS011;56392;51.082;17.080;2023-03-03T18:05:49;22.97;;;9.77;;
69280;SDS011;56392;51.082;17.080;2023-03-03T18:17:19;20.92;;;9.10;;
69280;SDS011;56392;51.082;17.080;2023-03-03T18:22:56;23.20;;;8.87;;
69280;SDS011;56392;51.082;17.080;2023-03-03T18:28:45;21.02;;;8.10;;
69280;SDS011;56392;51.082;17.080;2023-03-03T18:34:24;24.20;;;9.43;;
69280;SDS011;56392;51.082;17.080;2023-03-03T18:40:15;23.77;;;9.97;;
69280;SDS011;56392;51.082;17.080;2023-03-03T18:45:51;25.75;;;11.10;;
69280;SDS011;56392;51.082;17.080;2023-03-03T18:57:11;31.90;;;11.17;;
69280;SDS011;56392;51.082;17.080;2023-03-03T19:02:39;33.17;;;11.50;;
69280;SDS011;56392;51.082;17.080;2023-03-03T19:08:16;28.40;;;10.05;;
69280;SDS011;56392;51.082;17.080;2023-03-03T19:13:44;28.27;;;10.15;;
69280;SDS011;56392;51.082;17.080;2023-03-03T19:19:11;31.07;;;10.47;;
69280;SDS011;56392;51.082;17.080;2023-03-03T19:24:36;32.55;;;12.15;;
69280;SDS011;56392;51.082;17.080;2023-03-03T19:36:06;35.30;;;13.37;;
69280;SDS011;56392;51.082;17.080;2023-03-03T19:41:42;40.92;;;15.10;;
69280;SDS011;56392;51.082;17.080;2023-03-03T19:47:16;45.38;;;16.63;;
69280;SDS011;56392;51.082;17.080;2023-03-03T19:52:52;42.13;;;16.97;;
69280;SDS011;56392;51.082;17.080;2023-03-03T19:58:24;43.33;;;16.53;;
69280;SDS011;56392;51.082;17.080;2023-03-03T20:09:41;41.30;;;15.63;;
69280;SDS011;56392;51.082;17.080;2023-03-03T20:15:11;40.13;;;15.93;;
69280;SDS011;56392;51.082;17.080;2023-03-03T20:20:49;47.65;;;18.23;;
69280;SDS011;56392;51.082;17.080;2023-03-03T20:26:23;47.38;;;18.05;;
69280;SDS011;56392;51.082;17.080;2023-03-03T20:31:53;49.70;;;19.13;;
69280;SDS011;56392;51.082;17.080;2023-03-03T20:37:28;47.17;;;18.45;;
69280;SDS011;56392;51.082;17.080;2023-03-03T20:43:02;44.97;;;17.88;;
69280;SDS011;56392;51.082;17.080;2023-03-03T20:48:42;42.87;;;16.60;;
69280;SDS011;56392;51.082;17.080;2023-03-03T20:54:21;40.60;;;16.13;;
69280;SDS011;56392;51.082;17.080;2023-03-03T20:59:54;39.30;;;16.77;;
69280;SDS011;56392;51.082;17.080;2023-03-03T21:05:22;36.70;;;14.50;;
69280;SDS011;56392;51.082;17.080;2023-03-03T21:10:45;37.73;;;14.07;;
69280;SDS011;56392;51.082;17.080;2023-03-03T21:16:31;39.08;;;15.13;;
69280;SDS011;56392;51.082;17.080;2023-03-03T21:21:56;40.10;;;15.10;;
69280;SDS011;56392;51.082;17.080;2023-03-03T21:27:24;40.43;;;16.30;;
69280;SDS011;56392;51.082;17.080;2023-03-03T21:32:51;40.38;;;15.25;;
69280;SDS011;56392;51.082;17.080;2023-03-03T21:43:55;41.70;;;17.20;;
69280;SDS011;56392;51.082;17.080;2023-03-03T21:49:20;41.63;;;16.97;;
69280;SDS011;56392;51.082;17.080;2023-03-03T21:54:43;45.42;;;18.60;;
69280;SDS011;56392;51.082;17.080;2023-03-03T22:00:08;47.20;;;18.52;;
69280;SDS011;56392;51.082;17.080;2023-03-03T22:05:33;47.97;;;18.00;;
69280;SDS011;56392;51.082;17.080;2023-03-03T22:10:56;44.40;;;16.67;;
69280;SDS011;56392;51.082;17.080;2023-03-03T22:16:19;51.17;;;17.60;;
69280;SDS011;56392;51.082;17.080;2023-03-03T22:21:44;47.67;;;16.83;;
69280;SDS011;56392;51.082;17.080;2023-03-03T22:27:08;45.38;;;17.65;;
69280;SDS011;56392;51.082;17.080;2023-03-03T22:32:32;46.85;;;17.20;;
69280;SDS011;56392;51.082;17.080;2023-03-03T22:37:56;42.90;;;16.23;;
69280;SDS011;56392;51.082;17.080;2023-03-03T22:43:20;44.43;;;16.63;;
69280;SDS011;56392;51.082;17.080;2023-03-03T22:48:43;41.63;;;16.83;;
69280;SDS011;56392;51.082;17.080;2023-03-03T22:54:07;43.53;;;17.88;;
69280;SDS011;56392;51.082;17.080;2023-03-03T22:59:30;49.17;;;17.50;;
69280;SDS011;56392;51.082;17.080;2023-03-03T23:04:56;44.38;;;18.02;;
69280;SDS011;56392;51.082;17.080;2023-03-03T23:10:23;41.03;;;15.25;;
69280;SDS011;56392;51.082;17.080;2023-03-03T23:15:47;38.60;;;16.27;;
69280;SDS011;56392;51.082;17.080;2023-03-03T23:21:10;38.30;;;15.80;;
69280;SDS011;56392;51.082;17.080;2023-03-03T23:26:34;38.60;;;15.30;;
69280;SDS011;56392;51.082;17.080;2023-03-03T23:31:58;37.53;;;13.87;;
69280;SDS011;56392;51.082;17.080;2023-03-03T23:37:21;37.20;;;13.97;;
69280;SDS011;56392;51.082;17.080;2023-03-03T23:42:46;32.50;;;13.05;;
69280;SDS011;56392;51.082;17.080;2023-03-03T23:48:10;32.60;;;12.30;;
69280;SDS011;56392;51.082;17.080;2023-03-03T23:53:34;31.33;;;11.83;;
69280;SDS011;56392;51.082;17.080;2023-03-03T23:58:58;29.95;;;11.60;;
